sensor_id;sensor_type;location;lat;lon;timestamp;temperature;humidity
37002;DHT22;22913;51.910;8.374;2023-04-25T00:01:45;7.00;99.90
37002;DHT22;22913;51.910;8.374;2023-04-25T00:04:31;7.10;99.90
37002;DHT22;22913;51.910;8.374;2023-04-25T00:07:17;7.10;99.90
37002;DHT22;22913;51.910;8.374;2023-04-25T00:10:03;7.00;99.90
37002;DHT22;22913;51.910;8.374;2023-04-25T00:12:50;7.00;99.90
37002;DHT22;22913;51.910;8.374;2023-04-25T00:15:35;7.10;99.90
37002;DHT22;22913;51.910;8.374;2023-04-25T00:18:21;7.10;99.90
37002;DHT22;22913;51.910;8.374;2023-04-25T00:21:08;7.00;99.90
37002;DHT22;22913;51.910;8.374;2023-04-25T00:23:54;7.10;99.90
37002;DHT22;22913;51.910;8.374;2023-04-25T00:26:39;7.00;99.90
37002;DHT22;22913;51.910;8.374;2023-04-25T00:29:27;7.00;99.90
37002;DHT22;22913;51.910;8.374;2023-04-25T00:32:12;7.00;99.90
37002;DHT22;22913;51.910;8.374;2023-04-25T00:34:58;7.00;99.90
37002;DHT22;22913;51.910;8.374;2023-04-25T00:37:43;7.10;99.90
37002;DHT22;22913;51.910;8.374;2023-04-25T00:40:29;7.00;99.90
37002;DHT22;22913;51.910;8.374;2023-04-25T00:43:14;7.00;99.90
37002;DHT22;22913;51.910;8.374;2023-04-25T00:46:01;7.00;99.90
37002;DHT22;22913;51.910;8.374;2023-04-25T00:48:47;7.00;99.90
37002;DHT22;22913;51.910;8.374;2023-04-25T00:51:33;7.00;99.90
37002;DHT22;22913;51.910;8.374;2023-04-25T00:54:18;7.00;99.90
37002;DHT22;22913;51.910;8.374;2023-04-25T00:57:04;7.00;99.90
37002;DHT22;22913;51.910;8.374;2023-04-25T00:59:49;7.00;99.90
37002;DHT22;22913;51.910;8.374;2023-04-25T01:02:37;6.90;99.90
37002;DHT22;22913;51.910;8.374;2023-04-25T01:05:22;6.90;99.90
37002;DHT22;22913;51.910;8.374;2023-04-25T01:08:08;6.80;99.90
37002;DHT22;22913;51.910;8.374;2023-04-25T01:10:54;6.80;99.90
37002;DHT22;22913;51.910;8.374;2023-04-25T01:13:40;6.80;99.90
37002;DHT22;22913;51.910;8.374;2023-04-25T01:16:25;6.90;99.90
37002;DHT22;22913;51.910;8.374;2023-04-25T01:19:12;6.80;99.90
37002;DHT22;22913;51.910;8.374;2023-04-25T01:22:03;6.80;99.90
37002;DHT22;22913;51.910;8.374;2023-04-25T01:24:49;6.80;99.90
37002;DHT22;22913;51.910;8.374;2023-04-25T01:27:35;6.80;99.90
37002;DHT22;22913;51.910;8.374;2023-04-25T01:30:20;6.70;99.90
37002;DHT22;22913;51.910;8.374;2023-04-25T01:33:07;6.80;99.90
37002;DHT22;22913;51.910;8.374;2023-04-25T01:35:53;6.60;99.90
37002;DHT22;22913;51.910;8.374;2023-04-25T01:38:40;6.60;99.90
37002;DHT22;22913;51.910;8.374;2023-04-25T01:41:25;6.60;99.90
37002;DHT22;22913;51.910;8.374;2023-04-25T01:44:11;6.60;99.90
37002;DHT22;22913;51.910;8.374;2023-04-25T01:46:56;6.70;99.90
37002;DHT22;22913;51.910;8.374;2023-04-25T01:49:42;6.60;99.90
37002;DHT22;22913;51.910;8.374;2023-04-25T01:52:28;6.60;99.90
37002;DHT22;22913;51.910;8.374;2023-04-25T01:55:15;6.70;99.90
37002;DHT22;22913;51.910;8.374;2023-04-25T01:58:01;6.70;99.90
37002;DHT22;22913;51.910;8.374;2023-04-25T02:00:47;6.60;99.90
37002;DHT22;22913;51.910;8.374;2023-04-25T02:03:33;6.60;99.90
37002;DHT22;22913;51.910;8.374;2023-04-25T02:06:19;6.70;99.90
37002;DHT22;22913;51.910;8.374;2023-04-25T02:09:04;6.70;99.90
37002;DHT22;22913;51.910;8.374;2023-04-25T02:11:52;6.60;99.90
37002;DHT22;22913;51.910;8.374;2023-04-25T02:14:38;6.60;99.90
37002;DHT22;22913;51.910;8.374;2023-04-25T02:17:24;6.70;99.90
37002;DHT22;22913;51.910;8.374;2023-04-25T02:20:10;6.60;99.90
37002;DHT22;22913;51.910;8.374;2023-04-25T02:22:56;6.60;99.90
37002;DHT22;22913;51.910;8.374;2023-04-25T02:25:42;6.50;99.90
37002;DHT22;22913;51.910;8.374;2023-04-25T02:28:29;6.50;99.90
37002;DHT22;22913;51.910;8.374;2023-04-25T02:31:14;6.50;99.90
37002;DHT22;22913;51.910;8.374;2023-04-25T02:34:00;6.50;99.90
37002;DHT22;22913;51.910;8.374;2023-04-25T02:36:45;6.50;99.90
37002;DHT22;22913;51.910;8.374;2023-04-25T02:39:31;6.50;99.90
37002;DHT22;22913;51.910;8.374;2023-04-25T02:42:17;6.60;99.90
37002;DHT22;22913;51.910;8.374;2023-04-25T02:45:04;6.50;99.90
37002;DHT22;22913;51.910;8.374;2023-04-25T02:47:49;6.50;99.90
37002;DHT22;22913;51.910;8.374;2023-04-25T02:50:35;6.50;99.90
37002;DHT22;22913;51.910;8.374;2023-04-25T02:53:20;6.60;99.90
37002;DHT22;22913;51.910;8.374;2023-04-25T02:56:06;6.60;99.90
37002;DHT22;22913;51.910;8.374;2023-04-25T02:58:52;6.60;99.90
37002;DHT22;22913;51.910;8.374;2023-04-25T03:01:39;6.60;99.90
37002;DHT22;22913;51.910;8.374;2023-04-25T03:04:24;6.60;99.90
37002;DHT22;22913;51.910;8.374;2023-04-25T03:07:12;6.60;99.90
37002;DHT22;22913;51.910;8.374;2023-04-25T03:09:57;6.60;99.90
37002;DHT22;22913;51.910;8.374;2023-04-25T03:12:42;6.60;99.90
37002;DHT22;22913;51.910;8.374;2023-04-25T03:15:28;6.60;99.90
37002;DHT22;22913;51.910;8.374;2023-04-25T03:18:16;6.70;99.90
37002;DHT22;22913;51.910;8.374;2023-04-25T03:21:01;6.70;99.90
37002;DHT22;22913;51.910;8.374;2023-04-25T03:23:47;6.70;99.90
37002;DHT22;22913;51.910;8.374;2023-04-25T03:26:33;6.70;99.90
37002;DHT22;22913;51.910;8.374;2023-04-25T03:29:18;6.80;99.90
37002;DHT22;22913;51.910;8.374;2023-04-25T03:32:13;6.80;99.90
37002;DHT22;22913;51.910;8.374;2023-04-25T03:35:00;6.80;99.90
37002;DHT22;22913;51.910;8.374;2023-04-25T03:37:45;6.90;99.90
37002;DHT22;22913;51.910;8.374;2023-04-25T03:40:31;7.00;99.90
37002;DHT22;22913;51.910;8.374;2023-04-25T03:43:16;7.00;99.90
37002;DHT22;22913;51.910;8.374;2023-04-25T03:46:02;6.90;99.90
37002;DHT22;22913;51.910;8.374;2023-04-25T03:48:48;6.90;99.90
37002;DHT22;22913;51.910;8.374;2023-04-25T03:51:35;6.90;99.90
37002;DHT22;22913;51.910;8.374;2023-04-25T03:54:20;6.90;99.90
37002;DHT22;22913;51.910;8.374;2023-04-25T03:57:06;6.80;99.90
37002;DHT22;22913;51.910;8.374;2023-04-25T03:59:52;6.80;99.90
37002;DHT22;22913;51.910;8.374;2023-04-25T04:02:37;6.80;99.90
37002;DHT22;22913;51.910;8.374;2023-04-25T04:05:23;6.80;99.90
37002;DHT22;22913;51.910;8.374;2023-04-25T04:08:10;6.80;99.90
37002;DHT22;22913;51.910;8.374;2023-04-25T04:10:57;6.70;99.90
37002;DHT22;22913;51.910;8.374;2023-04-25T04:13:43;6.70;99.90
37002;DHT22;22913;51.910;8.374;2023-04-25T04:16:28;6.80;99.90
37002;DHT22;22913;51.910;8.374;2023-04-25T04:19:14;6.80;99.90
37002;DHT22;22913;51.910;8.374;2023-04-25T04:21:59;6.80;99.90
37002;DHT22;22913;51.910;8.374;2023-04-25T04:24:46;6.70;99.90
37002;DHT22;22913;51.910;8.374;2023-04-25T04:27:31;6.70;99.90
37002;DHT22;22913;51.910;8.374;2023-04-25T04:30:17;6.70;99.90
37002;DHT22;22913;51.910;8.374;2023-04-25T04:33:03;6.70;99.90
37002;DHT22;22913;51.910;8.374;2023-04-25T04:35:49;6.70;99.90
37002;DHT22;22913;51.910;8.374;2023-04-25T04:38:35;6.70;99.90
37002;DHT22;22913;51.910;8.374;2023-04-25T04:41:22;6.70;99.90
37002;DHT22;22913;51.910;8.374;2023-04-25T04:44:08;6.60;99.90
37002;DHT22;22913;51.910;8.374;2023-04-25T04:46:54;6.60;99.90
37002;DHT22;22913;51.910;8.374;2023-04-25T04:49:40;6.60;99.90
37002;DHT22;22913;51.910;8.374;2023-04-25T04:52:25;6.60;99.90
37002;DHT22;22913;51.910;8.374;2023-04-25T04:55:11;6.70;99.90
37002;DHT22;22913;51.910;8.374;2023-04-25T04:57:58;6.60;99.90
37002;DHT22;22913;51.910;8.374;2023-04-25T05:00:44;6.60;99.90
37002;DHT22;22913;51.910;8.374;2023-04-25T05:03:30;6.60;99.90
37002;DHT22;22913;51.910;8.374;2023-04-25T05:06:16;6.60;99.90
37002;DHT22;22913;51.910;8.374;2023-04-25T05:09:02;6.60;99.90
37002;DHT22;22913;51.910;8.374;2023-04-25T05:11:48;6.60;99.90
37002;DHT22;22913;51.910;8.374;2023-04-25T05:14:35;6.60;99.90
37002;DHT22;22913;51.910;8.374;2023-04-25T05:17:20;6.60;99.90
37002;DHT22;22913;51.910;8.374;2023-04-25T05:20:06;6.60;99.90
37002;DHT22;22913;51.910;8.374;2023-04-25T05:22:53;6.70;99.90
37002;DHT22;22913;51.910;8.374;2023-04-25T05:25:39;6.70;99.90
37002;DHT22;22913;51.910;8.374;2023-04-25T05:28:24;6.70;99.90
37002;DHT22;22913;51.910;8.374;2023-04-25T05:31:11;6.80;99.90
37002;DHT22;22913;51.910;8.374;2023-04-25T05:33:57;6.80;99.90
37002;DHT22;22913;51.910;8.374;2023-04-25T05:36:42;6.90;99.90
37002;DHT22;22913;51.910;8.374;2023-04-25T05:39:28;6.80;99.90
37002;DHT22;22913;51.910;8.374;2023-04-25T05:42:14;6.70;99.90
37002;DHT22;22913;51.910;8.374;2023-04-25T05:44:59;6.70;99.90
37002;DHT22;22913;51.910;8.374;2023-04-25T05:47:47;6.80;99.90
37002;DHT22;22913;51.910;8.374;2023-04-25T05:50:32;6.80;99.90
37002;DHT22;22913;51.910;8.374;2023-04-25T05:53:18;6.80;99.90
37002;DHT22;22913;51.910;8.374;2023-04-25T05:56:03;6.90;99.90
37002;DHT22;22913;51.910;8.374;2023-04-25T05:58:49;6.90;99.90
37002;DHT22;22913;51.910;8.374;2023-04-25T06:01:34;6.90;99.90
37002;DHT22;22913;51.910;8.374;2023-04-25T06:04:21;6.90;99.90
37002;DHT22;22913;51.910;8.374;2023-04-25T06:07:07;6.90;99.90
37002;DHT22;22913;51.910;8.374;2023-04-25T06:09:53;7.00;99.90
37002;DHT22;22913;51.910;8.374;2023-04-25T06:12:39;7.10;99.90
37002;DHT22;22913;51.910;8.374;2023-04-25T06:15:24;7.10;99.90
37002;DHT22;22913;51.910;8.374;2023-04-25T06:18:10;7.00;99.90
37002;DHT22;22913;51.910;8.374;2023-04-25T06:20:57;7.10;99.90
37002;DHT22;22913;51.910;8.374;2023-04-25T06:23:42;7.10;99.90
37002;DHT22;22913;51.910;8.374;2023-04-25T06:26:27;7.20;99.90
37002;DHT22;22913;51.910;8.374;2023-04-25T06:29:12;7.30;99.90
37002;DHT22;22913;51.910;8.374;2023-04-25T06:31:58;7.30;99.90
37002;DHT22;22913;51.910;8.374;2023-04-25T06:34:43;7.30;99.90
37002;DHT22;22913;51.910;8.374;2023-04-25T06:37:31;7.30;99.90
37002;DHT22;22913;51.910;8.374;2023-04-25T06:40:17;7.30;99.90
37002;DHT22;22913;51.910;8.374;2023-04-25T06:43:02;7.30;99.90
37002;DHT22;22913;51.910;8.374;2023-04-25T06:45:48;7.40;99.90
37002;DHT22;22913;51.910;8.374;2023-04-25T06:48:33;7.50;99.90
37002;DHT22;22913;51.910;8.374;2023-04-25T06:51:18;7.50;99.90
37002;DHT22;22913;51.910;8.374;2023-04-25T06:54:05;7.50;99.90
37002;DHT22;22913;51.910;8.374;2023-04-25T06:56:50;7.60;99.90
37002;DHT22;22913;51.910;8.374;2023-04-25T06:59:35;7.70;99.90
37002;DHT22;22913;51.910;8.374;2023-04-25T07:02:21;7.70;99.90
37002;DHT22;22913;51.910;8.374;2023-04-25T07:05:06;7.80;99.90
37002;DHT22;22913;51.910;8.374;2023-04-25T07:07:51;7.70;99.90
37002;DHT22;22913;51.910;8.374;2023-04-25T07:10:38;7.70;99.90
37002;DHT22;22913;51.910;8.374;2023-04-25T07:13:24;7.80;99.90
37002;DHT22;22913;51.910;8.374;2023-04-25T07:16:09;7.90;99.90
37002;DHT22;22913;51.910;8.374;2023-04-25T07:18:55;7.90;99.90
37002;DHT22;22913;51.910;8.374;2023-04-25T07:21:40;7.90;99.90
37002;DHT22;22913;51.910;8.374;2023-04-25T07:24:25;8.00;99.90
37002;DHT22;22913;51.910;8.374;2023-04-25T07:27:12;8.10;99.90
37002;DHT22;22913;51.910;8.374;2023-04-25T07:29:58;8.30;99.90
37002;DHT22;22913;51.910;8.374;2023-04-25T07:32:43;8.40;99.90
37002;DHT22;22913;51.910;8.374;2023-04-25T07:35:29;8.30;99.90
37002;DHT22;22913;51.910;8.374;2023-04-25T07:38:14;8.30;99.90
37002;DHT22;22913;51.910;8.374;2023-04-25T07:40:59;8.30;99.90
37002;DHT22;22913;51.910;8.374;2023-04-25T07:43:46;8.20;99.90
37002;DHT22;22913;51.910;8.374;2023-04-25T07:46:31;8.20;99.90
37002;DHT22;22913;51.910;8.374;2023-04-25T07:49:17;8.40;99.90
37002;DHT22;22913;51.910;8.374;2023-04-25T07:52:02;8.50;99.90
37002;DHT22;22913;51.910;8.374;2023-04-25T07:54:48;8.40;99.90
37002;DHT22;22913;51.910;8.374;2023-04-25T07:57:33;8.50;99.90
37002;DHT22;22913;51.910;8.374;2023-04-25T08:00:20;8.40;99.90
37002;DHT22;22913;51.910;8.374;2023-04-25T08:03:05;8.50;99.90
37002;DHT22;22913;51.910;8.374;2023-04-25T08:05:51;8.60;99.90
37002;DHT22;22913;51.910;8.374;2023-04-25T08:08:36;8.70;99.90
37002;DHT22;22913;51.910;8.374;2023-04-25T08:11:21;8.70;99.90
37002;DHT22;22913;51.910;8.374;2023-04-25T08:14:07;9.00;99.90
37002;DHT22;22913;51.910;8.374;2023-04-25T08:16:53;9.00;99.90
37002;DHT22;22913;51.910;8.374;2023-04-25T08:19:39;8.90;99.90
37002;DHT22;22913;51.910;8.374;2023-04-25T08:22:24;8.90;99.90
37002;DHT22;22913;51.910;8.374;2023-04-25T08:25:09;8.80;99.90
37002;DHT22;22913;51.910;8.374;2023-04-25T08:27:55;8.90;99.90
37002;DHT22;22913;51.910;8.374;2023-04-25T08:30:40;8.80;99.90
37002;DHT22;22913;51.910;8.374;2023-04-25T08:33:27;8.90;99.90
37002;DHT22;22913;51.910;8.374;2023-04-25T08:36:13;9.00;99.90
37002;DHT22;22913;51.910;8.374;2023-04-25T08:38:58;9.10;99.90
37002;DHT22;22913;51.910;8.374;2023-04-25T08:41:44;9.30;99.90
37002;DHT22;22913;51.910;8.374;2023-04-25T08:44:29;9.50;99.90
37002;DHT22;22913;51.910;8.374;2023-04-25T08:47:15;9.70;99.90
37002;DHT22;22913;51.910;8.374;2023-04-25T08:50:03;9.60;99.90
37002;DHT22;22913;51.910;8.374;2023-04-25T08:52:49;9.50;99.90
37002;DHT22;22913;51.910;8.374;2023-04-25T08:55:36;9.40;99.90
37002;DHT22;22913;51.910;8.374;2023-04-25T08:58:22;9.30;99.90
37002;DHT22;22913;51.910;8.374;2023-04-25T09:01:08;9.60;99.90
37002;DHT22;22913;51.910;8.374;2023-04-25T09:03:53;9.60;99.90
37002;DHT22;22913;51.910;8.374;2023-04-25T09:06:40;9.60;99.90
37002;DHT22;22913;51.910;8.374;2023-04-25T09:09:26;9.70;99.90
37002;DHT22;22913;51.910;8.374;2023-04-25T09:12:11;9.70;99.90
37002;DHT22;22913;51.910;8.374;2023-04-25T09:15:04;9.60;99.90
37002;DHT22;22913;51.910;8.374;2023-04-25T09:17:54;9.50;99.90
37002;DHT22;22913;51.910;8.374;2023-04-25T09:20:41;9.60;99.90
37002;DHT22;22913;51.910;8.374;2023-04-25T09:23:27;9.70;99.90
37002;DHT22;22913;51.910;8.374;2023-04-25T09:26:13;9.90;99.90
37002;DHT22;22913;51.910;8.374;2023-04-25T09:29:04;9.90;99.90
37002;DHT22;22913;51.910;8.374;2023-04-25T09:31:50;9.80;99.90
37002;DHT22;22913;51.910;8.374;2023-04-25T09:34:38;9.90;99.90
37002;DHT22;22913;51.910;8.374;2023-04-25T09:37:24;10.10;99.90
37002;DHT22;22913;51.910;8.374;2023-04-25T09:40:11;10.10;99.90
37002;DHT22;22913;51.910;8.374;2023-04-25T09:42:57;9.90;99.90
37002;DHT22;22913;51.910;8.374;2023-04-25T09:45:43;9.90;99.90
37002;DHT22;22913;51.910;8.374;2023-04-25T09:48:29;10.00;99.90
37002;DHT22;22913;51.910;8.374;2023-04-25T09:51:14;10.20;99.90
37002;DHT22;22913;51.910;8.374;2023-04-25T09:54:00;10.30;99.90
37002;DHT22;22913;51.910;8.374;2023-04-25T09:56:46;10.40;99.90
37002;DHT22;22913;51.910;8.374;2023-04-25T09:59:33;10.50;99.90
37002;DHT22;22913;51.910;8.374;2023-04-25T10:02:23;10.50;99.90
37002;DHT22;22913;51.910;8.374;2023-04-25T10:05:08;10.30;99.90
37002;DHT22;22913;51.910;8.374;2023-04-25T10:07:55;10.50;99.90
37002;DHT22;22913;51.910;8.374;2023-04-25T10:10:40;10.50;99.90
37002;DHT22;22913;51.910;8.374;2023-04-25T10:13:27;10.40;99.90
37002;DHT22;22913;51.910;8.374;2023-04-25T10:16:13;10.30;99.90
37002;DHT22;22913;51.910;8.374;2023-04-25T10:19:00;10.20;99.90
37002;DHT22;22913;51.910;8.374;2023-04-25T10:21:46;10.10;99.90
37002;DHT22;22913;51.910;8.374;2023-04-25T10:24:33;10.00;99.90
37002;DHT22;22913;51.910;8.374;2023-04-25T10:27:19;10.10;99.90
37002;DHT22;22913;51.910;8.374;2023-04-25T10:30:07;10.10;99.90
37002;DHT22;22913;51.910;8.374;2023-04-25T10:32:54;10.10;99.90
37002;DHT22;22913;51.910;8.374;2023-04-25T10:35:40;10.10;99.90
37002;DHT22;22913;51.910;8.374;2023-04-25T10:38:25;10.10;99.90
37002;DHT22;22913;51.910;8.374;2023-04-25T10:41:11;10.20;99.90
37002;DHT22;22913;51.910;8.374;2023-04-25T10:43:59;10.00;99.90
37002;DHT22;22913;51.910;8.374;2023-04-25T10:46:46;10.00;99.90
37002;DHT22;22913;51.910;8.374;2023-04-25T10:49:32;10.30;99.90
37002;DHT22;22913;51.910;8.374;2023-04-25T10:52:18;10.70;99.90
37002;DHT22;22913;51.910;8.374;2023-04-25T10:55:09;11.00;99.90
37002;DHT22;22913;51.910;8.374;2023-04-25T10:57:55;11.60;99.90
37002;DHT22;22913;51.910;8.374;2023-04-25T11:00:40;11.90;99.90
37002;DHT22;22913;51.910;8.374;2023-04-25T11:03:27;11.80;99.90
37002;DHT22;22913;51.910;8.374;2023-04-25T11:06:17;11.50;99.90
37002;DHT22;22913;51.910;8.374;2023-04-25T11:09:08;11.60;99.90
37002;DHT22;22913;51.910;8.374;2023-04-25T11:11:57;11.60;99.90
37002;DHT22;22913;51.910;8.374;2023-04-25T11:14:43;11.60;99.90
37002;DHT22;22913;51.910;8.374;2023-04-25T11:17:29;11.60;99.90
37002;DHT22;22913;51.910;8.374;2023-04-25T11:20:16;11.30;99.90
37002;DHT22;22913;51.910;8.374;2023-04-25T11:23:02;11.20;99.90
37002;DHT22;22913;51.910;8.374;2023-04-25T11:25:47;11.00;99.90
37002;DHT22;22913;51.910;8.374;2023-04-25T11:28:32;10.80;99.90
37002;DHT22;22913;51.910;8.374;2023-04-25T11:31:19;10.80;99.90
37002;DHT22;22913;51.910;8.374;2023-04-25T11:34:05;10.90;99.90
37002;DHT22;22913;51.910;8.374;2023-04-25T11:36:52;10.90;99.90
37002;DHT22;22913;51.910;8.374;2023-04-25T11:39:37;11.30;99.90
37002;DHT22;22913;51.910;8.374;2023-04-25T11:42:22;11.20;99.90
37002;DHT22;22913;51.910;8.374;2023-04-25T11:45:08;11.40;99.90
37002;DHT22;22913;51.910;8.374;2023-04-25T11:47:54;11.60;99.90
37002;DHT22;22913;51.910;8.374;2023-04-25T11:50:39;11.50;99.90
37002;DHT22;22913;51.910;8.374;2023-04-25T11:53:26;11.40;99.90
37002;DHT22;22913;51.910;8.374;2023-04-25T11:56:12;11.30;99.90
37002;DHT22;22913;51.910;8.374;2023-04-25T11:58:58;11.30;99.90
37002;DHT22;22913;51.910;8.374;2023-04-25T12:01:47;11.40;99.90
37002;DHT22;22913;51.910;8.374;2023-04-25T12:04:34;11.50;99.90
37002;DHT22;22913;51.910;8.374;2023-04-25T12:07:19;11.50;99.90
37002;DHT22;22913;51.910;8.374;2023-04-25T12:10:08;11.70;99.90
37002;DHT22;22913;51.910;8.374;2023-04-25T12:12:54;12.20;99.90
37002;DHT22;22913;51.910;8.374;2023-04-25T12:15:40;12.70;99.90
37002;DHT22;22913;51.910;8.374;2023-04-25T12:18:25;13.10;99.90
37002;DHT22;22913;51.910;8.374;2023-04-25T12:21:12;13.80;99.90
37002;DHT22;22913;51.910;8.374;2023-04-25T12:23:57;14.00;99.90
37002;DHT22;22913;51.910;8.374;2023-04-25T12:26:57;13.90;99.90
37002;DHT22;22913;51.910;8.374;2023-04-25T12:29:50;13.20;99.90
37002;DHT22;22913;51.910;8.374;2023-04-25T12:32:35;12.70;99.90
37002;DHT22;22913;51.910;8.374;2023-04-25T12:35:21;12.50;99.90
37002;DHT22;22913;51.910;8.374;2023-04-25T12:38:07;12.70;99.90
37002;DHT22;22913;51.910;8.374;2023-04-25T12:40:52;13.10;99.90
37002;DHT22;22913;51.910;8.374;2023-04-25T12:43:39;13.00;99.90
37002;DHT22;22913;51.910;8.374;2023-04-25T12:46:24;13.50;99.90
37002;DHT22;22913;51.910;8.374;2023-04-25T12:49:09;13.90;99.90
37002;DHT22;22913;51.910;8.374;2023-04-25T12:51:55;14.30;99.90
37002;DHT22;22913;51.910;8.374;2023-04-25T12:54:41;15.00;99.90
37002;DHT22;22913;51.910;8.374;2023-04-25T12:57:26;15.30;99.90
37002;DHT22;22913;51.910;8.374;2023-04-25T13:00:13;15.50;99.90
37002;DHT22;22913;51.910;8.374;2023-04-25T13:03:02;15.50;99.90
37002;DHT22;22913;51.910;8.374;2023-04-25T13:05:48;15.50;99.90
37002;DHT22;22913;51.910;8.374;2023-04-25T13:08:34;15.90;99.90
37002;DHT22;22913;51.910;8.374;2023-04-25T13:11:21;16.50;99.90
37002;DHT22;22913;51.910;8.374;2023-04-25T13:14:06;16.90;99.90
37002;DHT22;22913;51.910;8.374;2023-04-25T13:16:53;17.20;99.90
37002;DHT22;22913;51.910;8.374;2023-04-25T13:19:38;17.50;99.90
37002;DHT22;22913;51.910;8.374;2023-04-25T13:22:24;17.80;99.90
37002;DHT22;22913;51.910;8.374;2023-04-25T13:25:09;17.00;99.90
37002;DHT22;22913;51.910;8.374;2023-04-25T13:27:54;16.50;99.90
37002;DHT22;22913;51.910;8.374;2023-04-25T13:30:40;15.70;99.90
37002;DHT22;22913;51.910;8.374;2023-04-25T13:33:27;15.20;99.90
37002;DHT22;22913;51.910;8.374;2023-04-25T13:36:12;14.40;99.90
37002;DHT22;22913;51.910;8.374;2023-04-25T13:38:58;14.00;99.90
37002;DHT22;22913;51.910;8.374;2023-04-25T13:41:43;13.70;99.90
37002;DHT22;22913;51.910;8.374;2023-04-25T13:44:29;13.30;99.90
37002;DHT22;22913;51.910;8.374;2023-04-25T13:47:14;13.20;99.90
37002;DHT22;22913;51.910;8.374;2023-04-25T13:50:01;13.30;99.90
37002;DHT22;22913;51.910;8.374;2023-04-25T13:52:47;14.00;99.90
37002;DHT22;22913;51.910;8.374;2023-04-25T13:55:33;15.10;99.90
37002;DHT22;22913;51.910;8.374;2023-04-25T13:58:19;15.10;99.90
37002;DHT22;22913;51.910;8.374;2023-04-25T14:01:04;15.00;99.90
37002;DHT22;22913;51.910;8.374;2023-04-25T14:03:50;14.80;99.90
37002;DHT22;22913;51.910;8.374;2023-04-25T14:06:36;14.90;99.90
37002;DHT22;22913;51.910;8.374;2023-04-25T14:09:22;14.60;99.90
37002;DHT22;22913;51.910;8.374;2023-04-25T14:12:09;14.10;99.90
37002;DHT22;22913;51.910;8.374;2023-04-25T14:14:54;13.70;99.90
37002;DHT22;22913;51.910;8.374;2023-04-25T14:17:40;13.30;99.90
37002;DHT22;22913;51.910;8.374;2023-04-25T14:20:25;13.10;99.90
37002;DHT22;22913;51.910;8.374;2023-04-25T14:23:12;12.80;99.90
37002;DHT22;22913;51.910;8.374;2023-04-25T14:25:58;12.40;99.90
37002;DHT22;22913;51.910;8.374;2023-04-25T14:28:43;12.00;99.90
37002;DHT22;22913;51.910;8.374;2023-04-25T14:31:28;11.40;99.90
37002;DHT22;22913;51.910;8.374;2023-04-25T14:34:13;10.90;99.90
37002;DHT22;22913;51.910;8.374;2023-04-25T14:36:58;10.30;99.90
37002;DHT22;22913;51.910;8.374;2023-04-25T14:39:48;9.80;99.90
37002;DHT22;22913;51.910;8.374;2023-04-25T14:42:33;9.70;99.90
37002;DHT22;22913;51.910;8.374;2023-04-25T14:45:19;9.30;99.90
37002;DHT22;22913;51.910;8.374;2023-04-25T14:48:05;9.20;99.90
37002;DHT22;22913;51.910;8.374;2023-04-25T14:50:50;9.10;99.90
37002;DHT22;22913;51.910;8.374;2023-04-25T14:53:35;9.00;99.90
37002;DHT22;22913;51.910;8.374;2023-04-25T14:56:22;9.00;99.90
37002;DHT22;22913;51.910;8.374;2023-04-25T14:59:07;8.90;99.90
37002;DHT22;22913;51.910;8.374;2023-04-25T15:01:53;8.90;99.90
37002;DHT22;22913;51.910;8.374;2023-04-25T15:04:38;8.90;99.90
37002;DHT22;22913;51.910;8.374;2023-04-25T15:07:23;9.00;99.90
37002;DHT22;22913;51.910;8.374;2023-04-25T15:10:09;9.10;99.90
37002;DHT22;22913;51.910;8.374;2023-04-25T15:12:58;9.30;99.90
37002;DHT22;22913;51.910;8.374;2023-04-25T15:15:44;9.50;99.90
37002;DHT22;22913;51.910;8.374;2023-04-25T15:18:34;9.80;99.90
37002;DHT22;22913;51.910;8.374;2023-04-25T15:21:19;10.10;99.90
37002;DHT22;22913;51.910;8.374;2023-04-25T15:24:05;10.40;99.90
37002;DHT22;22913;51.910;8.374;2023-04-25T15:26:51;11.10;99.90
37002;DHT22;22913;51.910;8.374;2023-04-25T15:29:38;11.80;99.90
37002;DHT22;22913;51.910;8.374;2023-04-25T15:32:24;12.50;99.90
37002;DHT22;22913;51.910;8.374;2023-04-25T15:35:09;12.70;99.90
37002;DHT22;22913;51.910;8.374;2023-04-25T15:37:55;13.00;99.90
37002;DHT22;22913;51.910;8.374;2023-04-25T15:40:41;12.90;99.90
37002;DHT22;22913;51.910;8.374;2023-04-25T15:43:26;12.60;99.90
37002;DHT22;22913;51.910;8.374;2023-04-25T15:46:13;12.30;99.90
37002;DHT22;22913;51.910;8.374;2023-04-25T15:48:58;12.10;99.90
37002;DHT22;22913;51.910;8.374;2023-04-25T15:51:43;11.80;99.90
37002;DHT22;22913;51.910;8.374;2023-04-25T15:54:29;11.60;99.90
37002;DHT22;22913;51.910;8.374;2023-04-25T15:57:14;11.30;99.90
37002;DHT22;22913;51.910;8.374;2023-04-25T16:00:00;10.80;99.90
37002;DHT22;22913;51.910;8.374;2023-04-25T16:02:49;10.50;99.90
37002;DHT22;22913;51.910;8.374;2023-04-25T16:05:35;10.20;99.90
37002;DHT22;22913;51.910;8.374;2023-04-25T16:08:20;10.10;99.90
37002;DHT22;22913;51.910;8.374;2023-04-25T16:11:05;9.90;99.90
37002;DHT22;22913;51.910;8.374;2023-04-25T16:13:51;9.70;99.90
37002;DHT22;22913;51.910;8.374;2023-04-25T16:16:36;9.60;99.90
37002;DHT22;22913;51.910;8.374;2023-04-25T16:19:23;9.60;99.90
37002;DHT22;22913;51.910;8.374;2023-04-25T16:22:08;9.40;99.90
37002;DHT22;22913;51.910;8.374;2023-04-25T16:24:56;9.40;99.90
37002;DHT22;22913;51.910;8.374;2023-04-25T16:27:41;9.50;99.90
37002;DHT22;22913;51.910;8.374;2023-04-25T16:30:26;9.40;99.90
37002;DHT22;22913;51.910;8.374;2023-04-25T16:33:11;9.40;99.90
37002;DHT22;22913;51.910;8.374;2023-04-25T16:35:58;9.50;99.90
37002;DHT22;22913;51.910;8.374;2023-04-25T16:38:44;9.60;99.90
37002;DHT22;22913;51.910;8.374;2023-04-25T16:41:29;9.70;99.90
37002;DHT22;22913;51.910;8.374;2023-04-25T16:44:14;9.70;99.90
37002;DHT22;22913;51.910;8.374;2023-04-25T16:46:59;9.70;99.90
37002;DHT22;22913;51.910;8.374;2023-04-25T16:49:45;9.90;99.90
37002;DHT22;22913;51.910;8.374;2023-04-25T16:52:32;10.00;99.90
37002;DHT22;22913;51.910;8.374;2023-04-25T16:55:17;10.10;99.90
37002;DHT22;22913;51.910;8.374;2023-04-25T16:58:03;10.10;99.90
37002;DHT22;22913;51.910;8.374;2023-04-25T17:00:49;10.20;99.90
37002;DHT22;22913;51.910;8.374;2023-04-25T17:03:35;10.30;99.90
37002;DHT22;22913;51.910;8.374;2023-04-25T17:06:20;10.30;99.90
37002;DHT22;22913;51.910;8.374;2023-04-25T17:09:07;10.30;99.90
37002;DHT22;22913;51.910;8.374;2023-04-25T17:11:53;10.30;99.90
37002;DHT22;22913;51.910;8.374;2023-04-25T17:14:39;10.30;99.90
37002;DHT22;22913;51.910;8.374;2023-04-25T17:17:24;10.40;99.90
37002;DHT22;22913;51.910;8.374;2023-04-25T17:20:10;10.60;99.90
37002;DHT22;22913;51.910;8.374;2023-04-25T17:22:56;10.60;99.90
37002;DHT22;22913;51.910;8.374;2023-04-25T17:25:43;10.60;99.90
37002;DHT22;22913;51.910;8.374;2023-04-25T17:28:29;10.50;99.90
37002;DHT22;22913;51.910;8.374;2023-04-25T17:31:14;10.40;99.90
37002;DHT22;22913;51.910;8.374;2023-04-25T17:34:00;10.50;99.90
37002;DHT22;22913;51.910;8.374;2023-04-25T17:36:45;10.50;99.90
37002;DHT22;22913;51.910;8.374;2023-04-25T17:39:31;10.50;99.90